Cap-Aux-Meules, Canada
Current Conditions -  °F | °C
As of 12:00 PM on Sunday 23 Nov 2014 (Local Time) from CYGR Reporting Station
Few Clouds Few Clouds  
Wind Chill: 27°   Ceiling: Unl
Heat Index: 37°   Visibility: 15mi
Dew Point: 32°   Wind: 20mph
Humidity: 81%   Direction: 270°W
Pressure: 29.85"   Gusts: 26mph
Location:  47.38°N, 61.87°W
Report Text: CYGR 231600Z 27017G23KT 15SM FEW030 FEW240 03/M00 A2985 RMK SC1CI1 SC TR CI TR SLP108
Loading
Personal Weather Stations






























Interactive Weather Map New forecast layout! Learn more

10-Day Weather Forecast

Advertisements
Track Severe Weather on mobile